Decoded Metar for ZGHA (CHANGCHA in CHINA) (IATA:CSX) | Meteo·Mobile Aviation Weather
aviador You're here:

ZGHA Decoded Metar

CHANGCHA in CHINA
Report Time2019-07-21 14:00:00
UTC Time2019-07-21 14:44:56
Flight Rules vfr VFR
Wind180° at 4 kt
W.Decomp.*RWY 18: 4.0 kt HW 0.2 kt RCW
Visibility9999 m
Phenomena:N/A
Clouds:N/A
Expected CloudBase > 800 ft AGL from Temp-Dew spread
CeilingNone
Temp27°C (ISA +12)
Dew Point25°C (89% RH)
Heat Index30.6°C
QNH1004 hPa
Density Alt2,372 ft
Elevation217 ft
Report Wrong Elevation
Raw Report
ZGHA 211400Z 18002MPS 150V250 CAVOK 27/25 Q1004 NOSIG=

Extra information for ZGHA:More info

Metar Taf Metar & Taf Last 4 Metars F.Rules Stats Wind Profile Meteogram Temp Stats Airport Information Weather charts Add Link Nearby VenuesMetar ALERT Operation Metar Decoded Social comments